Time;durP1;ratioP1;P1;durP2;ratioP2;P2;SDS_P1;SDS_P2;PMS_P1;PMS_P2;Temp;Humidity;BMP_temperature;BMP_pressure;BME280_temperature;BME280_humidity;BME280_pressure;Samples;Min_cycle;Max_cycle;Signal;HPM_P1;HPM_P2
2023/03/13 00:01:12;788272.00;2.63;1360.68;129590.00;0.43;224.62;;;;;12.60;1.00;;;;;;2276402;61;1309;-86
2023/03/13 00:03:39;641088.00;2.14;1105.22;92202.00;0.31;160.11;;;;;12.60;1.00;;;;;;2276459;61;1976;-89
2023/03/13 00:06:06;393646.00;1.31;678.88;71287.00;0.24;123.98;;;;;12.80;1.00;;;;;;2276425;61;1067;-85
2023/03/13 00:08:34;561338.00;1.87;967.51;98259.00;0.33;170.57;;;;;12.80;1.00;;;;;;2276476;61;1117;-85
2023/03/13 00:11:03;620524.00;2.07;1069.67;56979.00;0.19;99.25;;;;;12.70;1.00;;;;;;2276412;61;1293;-86
2023/03/13 00:13:30;585352.00;1.95;1008.93;93355.00;0.31;162.10;;;;;12.80;1.00;;;;;;2276496;61;1043;-87
2023/03/13 00:16:03;602509.00;2.01;1038.55;103796.00;0.35;180.12;;;;;12.90;1.00;;;;;;2276440;61;1134;-85
2023/03/13 00:18:30;1020784.00;3.40;1769.32;98297.00;0.33;170.63;;;;;13.00;1.00;;;;;;2276349;61;1687;-88
2023/03/13 00:23:27;1051566.00;3.51;1824.02;89564.00;0.30;155.55;;;;;13.10;1.00;;;;;;2281693;60;1898;-87
2023/03/13 00:25:58;694803.00;2.32;1198.23;88242.00;0.29;153.27;;;;;13.20;1.00;;;;;;2280369;60;1103;-86
2023/03/13 00:28:27;835751.00;2.79;1443.55;92134.00;0.31;159.99;;;;;13.20;1.00;;;;;;2280447;60;969;-87
2023/03/13 00:31:02;764345.00;2.55;1319.01;108519.00;0.36;188.27;;;;;13.30;1.00;;;;;;2276837;61;1569;-85
2023/03/13 00:33:29;715849.00;2.39;1234.73;70462.00;0.23;122.56;;;;;13.30;1.00;;;;;;2276263;61;1059;-88
2023/03/13 00:35:59;1070893.00;3.57;1858.45;122299.00;0.41;212.05;;;;;13.10;1.00;;;;;;2276399;61;1107;-86
2023/03/13 00:38:27;860598.00;2.87;1487.02;116086.00;0.39;201.33;;;;;13.10;1.00;;;;;;2276288;61;1061;-84
2023/03/13 00:40:59;920441.00;3.07;1592.05;93988.00;0.31;163.19;;;;;13.20;1.00;;;;;;2276236;61;1272;-86
2023/03/13 00:43:26;853124.00;2.84;1473.93;0.00;0.00;0.62;;;;;13.20;1.00;;;;;;2276196;61;2006;-85
2023/03/13 00:45:53;1111047.00;3.70;1930.19;96829.00;0.32;168.10;;;;;13.20;1.00;;;;;;2276287;61;1677;-85
2023/03/13 00:48:22;806555.00;2.69;1392.56;144205.00;0.48;249.82;;;;;13.10;1.00;;;;;;2276357;61;1125;-88
2023/03/13 00:50:49;706475.00;2.35;1218.47;130233.00;0.43;225.73;;;;;13.10;1.00;;;;;;2276194;61;1251;-87
2023/03/13 00:53:16;760770.00;2.54;1312.79;98861.00;0.33;171.61;;;;;13.30;1.00;;;;;;2276309;61;1118;-88
2023/03/13 00:55:55;813446.00;2.71;1404.58;93755.00;0.31;162.79;;;;;13.30;1.00;;;;;;2276342;61;1000;-87
2023/03/13 00:58:23;484688.00;1.62;835.47;0.00;0.00;0.62;;;;;13.30;1.00;;;;;;2276337;61;1094;-86
2023/03/13 01:00:51;598957.00;2.00;1032.42;0.00;0.00;0.62;;;;;13.30;1.00;;;;;;2276259;61;1313;-87
2023/03/13 01:03:21;467272.00;1.56;805.50;0.00;0.00;0.62;;;;;13.30;1.00;;;;;;2276196;61;2006;-87
2023/03/13 01:05:57;734281.00;2.45;1266.74;77044.00;0.26;133.93;;;;;13.40;1.00;;;;;;2276294;61;1144;-85
2023/03/13 01:08:24;716123.00;2.39;1235.21;0.00;0.00;0.62;;;;;13.50;1.00;;;;;;2276290;61;918;-86
2023/03/13 01:10:51;461136.00;1.54;794.94;2443.00;0.01;4.85;;;;;13.40;1.00;;;;;;2276247;61;1475;-87
2023/03/13 01:13:18;288489.00;0.96;498.13;0.00;0.00;0.62;;;;;13.20;1.00;;;;;;2276117;61;1499;-87
2023/03/13 01:15:45;465681.00;1.55;802.76;0.00;0.00;0.62;;;;;13.30;1.00;;;;;;2276148;61;1064;-88
2023/03/13 01:18:14;571609.00;1.91;985.22;0.00;0.00;0.62;;;;;13.40;1.00;;;;;;2276280;61;1099;-90
2023/03/13 01:20:41;578468.00;1.93;997.06;13065.00;0.04;23.26;;;;;13.30;1.00;;;;;;2276210;61;1273;-87
2023/03/13 01:23:09;771019.00;2.57;1330.63;0.00;0.00;0.62;;;;;13.40;1.00;;;;;;2276041;61;1914;-87
2023/03/13 01:25:36;433863.00;1.45;748.03;0.00;0.00;0.62;;;;;13.40;1.00;;;;;;2276269;61;1429;-87
2023/03/13 01:28:04;388033.00;1.29;669.23;0.00;0.00;0.62;;;;;13.40;1.00;;;;;;2276226;61;1039;-88
2023/03/13 01:30:31;244971.00;0.82;423.30;0.00;0.00;0.62;;;;;13.30;1.00;;;;;;2276139;61;1266;-86
2023/03/13 01:32:58;614567.00;2.05;1059.38;77453.00;0.26;134.64;;;;;13.30;1.00;;;;;;2276131;61;1537;-87
2023/03/13 01:35:25;582807.00;1.94;1004.54;7673.00;0.03;13.92;;;;;13.30;1.00;;;;;;2276059;61;761;-84
2023/03/13 01:37:52;415023.00;1.38;715.63;0.00;0.00;0.62;;;;;13.20;1.00;;;;;;2276144;61;1128;-86
2023/03/13 01:40:20;560634.00;1.87;966.29;0.00;0.00;0.62;;;;;13.20;1.00;;;;;;2275979;61;1273;-87
2023/03/13 01:42:52;768962.00;2.56;1327.05;36967.00;0.12;64.64;;;;;13.30;1.00;;;;;;2276044;61;1997;-88
2023/03/13 01:45:56;465352.00;1.55;802.19;9442.00;0.03;16.98;;;;;13.30;1.00;;;;;;2282093;55;3775;-87
2023/03/13 01:50:54;657669.00;2.19;1133.91;0.00;0.00;0.62;;;;;13.30;1.00;;;;;;2278935;60;1417;-85
2023/03/13 01:53:21;263619.00;0.88;455.37;0.00;0.00;0.62;;;;;13.30;1.00;;;;;;2276059;61;1086;-86
2023/03/13 01:55:52;286960.00;0.96;495.50;0.00;0.00;0.62;;;;;13.20;1.00;;;;;;2276031;61;1155;-82
2023/03/13 01:58:19;249028.00;0.83;430.28;0.00;0.00;0.62;;;;;13.20;1.00;;;;;;2276026;61;1118;-85
2023/03/13 02:00:47;242725.00;0.81;419.44;0.00;0.00;0.62;;;;;13.30;1.00;;;;;;2276112;61;1297;-87
2023/03/13 02:03:19;68422.00;0.23;119.03;0.00;0.00;0.62;;;;;13.30;1.00;;;;;;2276040;61;2001;-87
2023/03/13 02:05:49;460871.00;1.54;794.48;0.00;0.00;0.62;;;;;13.30;1.00;;;;;;2275972;61;1430;-86
2023/03/13 02:08:21;292453.00;0.97;504.95;0.00;0.00;0.62;;;;;13.30;1.00;;;;;;2276057;61;1058;-88
2023/03/13 02:10:58;382527.00;1.28;659.77;0.00;0.00;0.62;;;;;13.30;1.00;;;;;;2275958;61;1613;-85
2023/03/13 02:13:25;193104.00;0.64;334.05;0.00;0.00;0.62;;;;;13.30;1.00;;;;;;2276100;61;1118;-85
2023/03/13 02:15:52;409976.00;1.37;706.96;0.00;0.00;0.62;;;;;13.40;1.00;;;;;;2276047;61;907;-85
2023/03/13 02:18:19;180192.00;0.60;311.82;0.00;0.00;0.62;;;;;13.50;1.00;;;;;;2276113;61;1596;-89
2023/03/13 02:20:50;242188.00;0.81;418.51;0.00;0.00;0.62;;;;;13.50;1.00;;;;;;2275890;61;1494;-84
2023/03/13 02:23:24;251364.00;0.84;434.30;0.00;0.00;0.62;;;;;13.60;1.00;;;;;;2275657;61;1922;-88
2023/03/13 02:25:54;146231.00;0.49;253.31;0.00;0.00;0.62;;;;;13.70;1.00;;;;;;2275921;61;1081;-88
2023/03/13 02:28:25;173078.00;0.58;299.57;0.00;0.00;0.62;;;;;13.80;1.00;;;;;;2275924;61;1063;-87
2023/03/13 02:30:55;160494.00;0.53;277.89;0.00;0.00;0.62;;;;;13.70;1.00;;;;;;2275955;61;1380;-86
2023/03/13 02:33:27;429554.00;1.43;740.62;18224.00;0.06;32.19;;;;;13.70;1.00;;;;;;2276011;61;994;-87
2023/03/13 02:35:55;259219.00;0.86;447.81;37853.00;0.13;66.17;;;;;13.70;1.00;;;;;;2275898;61;1726;-88
2023/03/13 02:38:26;197213.00;0.66;341.13;0.00;0.00;0.62;;;;;13.80;1.00;;;;;;2275868;61;1007;-85
2023/03/13 02:40:57;196101.00;0.65;339.21;0.00;0.00;0.62;;;;;13.80;1.00;;;;;;2275800;61;1364;-87
2023/03/13 02:43:29;204288.00;0.68;353.30;0.00;0.00;0.62;;;;;13.90;1.00;;;;;;2275912;61;2008;-88
2023/03/13 02:46:04;139043.00;0.46;240.92;0.00;0.00;0.62;;;;;14.00;1.00;;;;;;2275876;61;1427;-88
2023/03/13 02:48:34;271001.00;0.90;468.07;0.00;0.00;0.62;;;;;14.10;1.00;;;;;;2275831;61;1489;-87
2023/03/13 02:51:03;193611.00;0.65;334.93;0.00;0.00;0.62;;;;;14.20;1.00;;;;;;2275753;61;1432;-87
2023/03/13 02:53:31;303654.00;1.01;524.20;0.00;0.00;0.62;;;;;14.10;1.00;;;;;;2275871;61;1589;-87
2023/03/13 02:56:00;140975.00;0.47;244.25;0.00;0.00;0.62;;;;;14.10;1.00;;;;;;2275860;61;1060;-87
2023/03/13 02:58:27;146822.00;0.49;254.33;0.00;0.00;0.62;;;;;14.20;1.00;;;;;;2275861;61;1598;-87
2023/03/13 03:00:54;125219.00;0.42;217.08;0.00;0.00;0.62;;;;;14.20;1.00;;;;;;2276016;61;1373;-88
2023/03/13 03:03:21;253773.00;0.85;438.44;40444.00;0.13;70.66;;;;;14.20;1.00;;;;;;2275970;61;1910;-88
2023/03/13 03:05:48;319087.00;1.06;550.73;0.00;0.00;0.62;;;;;14.20;1.00;;;;;;2275703;61;1237;-85
2023/03/13 03:08:15;114388.00;0.38;198.40;0.00;0.00;0.62;;;;;14.40;1.00;;;;;;2276451;61;1148;-87
2023/03/13 03:10:42;148781.00;0.50;257.71;0.00;0.00;0.62;;;;;14.40;1.00;;;;;;2276617;61;1261;-87
2023/03/13 03:13:10;118408.00;0.39;205.34;0.00;0.00;0.62;;;;;14.40;1.00;;;;;;2276695;61;1250;-87
2023/03/13 03:15:37;169376.00;0.56;293.19;0.00;0.00;0.62;;;;;14.50;1.00;;;;;;2276525;61;1601;-88
2023/03/13 03:18:04;228940.00;0.76;395.73;0.00;0.00;0.62;;;;;14.60;1.00;;;;;;2276420;61;1424;-89
2023/03/13 03:20:31;105996.00;0.35;183.92;0.00;0.00;0.62;;;;;14.70;1.00;;;;;;2276462;61;1754;-86
2023/03/13 03:22:58;190213.00;0.63;329.08;0.00;0.00;0.62;;;;;14.50;1.00;;;;;;2276316;61;997;-86
2023/03/13 03:25:25;249125.00;0.83;430.45;0.00;0.00;0.62;;;;;14.70;1.00;;;;;;2276456;61;1998;-88
2023/03/13 03:27:52;174642.00;0.58;302.26;0.00;0.00;0.62;;;;;14.60;1.00;;;;;;2276655;61;971;-86
2023/03/13 03:30:20;214636.00;0.72;371.11;0.00;0.00;0.62;;;;;14.70;1.00;;;;;;2276523;61;1316;-87
2023/03/13 03:32:47;154956.00;0.52;268.35;0.00;0.00;0.62;;;;;14.70;1.00;;;;;;2276545;61;1067;-88
2023/03/13 03:35:15;252057.00;0.84;435.49;0.00;0.00;0.62;;;;;14.50;1.00;;;;;;2276589;61;1007;-88
2023/03/13 03:37:41;237840.00;0.79;411.04;0.00;0.00;0.62;;;;;14.40;1.00;;;;;;2276422;61;910;-88
2023/03/13 03:40:12;315964.00;1.05;545.36;0.00;0.00;0.62;;;;;14.30;1.00;;;;;;2276464;61;1275;-88
2023/03/13 03:42:39;204621.00;0.68;353.88;0.00;0.00;0.62;;;;;14.40;1.00;;;;;;2276625;61;1185;-87
2023/03/13 03:45:07;170899.00;0.57;295.82;0.00;0.00;0.62;;;;;14.50;1.00;;;;;;2276551;61;1922;-88
2023/03/13 03:47:37;121367.00;0.40;210.44;0.00;0.00;0.62;;;;;14.30;1.00;;;;;;2276449;61;1592;-85
2023/03/13 03:50:06;187605.00;0.63;324.58;0.00;0.00;0.62;;;;;14.20;1.00;;;;;;2276291;61;1345;-90
2023/03/13 03:52:33;245302.00;0.82;423.87;0.00;0.00;0.62;;;;;14.10;1.00;;;;;;2276458;61;1219;-89
2023/03/13 03:55:00;177387.00;0.59;306.99;0.00;0.00;0.62;;;;;14.00;1.00;;;;;;2276533;61;1024;-88
2023/03/13 03:57:27;134905.00;0.45;233.79;0.00;0.00;0.62;;;;;14.00;1.00;;;;;;2276471;61;1128;-86
2023/03/13 03:59:54;246010.00;0.82;425.09;0.00;0.00;0.62;;;;;13.90;1.00;;;;;;2276257;61;1303;-85
2023/03/13 04:02:21;390973.00;1.30;674.29;0.00;0.00;0.62;;;;;13.80;1.00;;;;;;2286067;39;3622;-86
2023/03/13 04:04:49;269999.00;0.90;466.34;33100.00;0.11;57.95;;;;;13.80;1.00;;;;;;2284643;60;2009;-87
2023/03/13 04:07:16;78763.00;0.26;136.90;0.00;0.00;0.62;;;;;14.10;1.00;;;;;;2284907;60;1728;-88
2023/03/13 04:09:43;261719.00;0.87;452.10;0.00;0.00;0.62;;;;;14.10;1.00;;;;;;2290239;56;3738;-85
2023/03/13 04:12:10;241811.00;0.81;417.87;0.00;0.00;0.62;;;;;14.10;1.00;;;;;;2276681;61;1142;-85
2023/03/13 04:14:37;291802.00;0.97;503.83;0.00;0.00;0.62;;;;;13.90;1.00;;;;;;2276725;61;1085;-88
2023/03/13 04:17:04;88101.00;0.29;153.03;0.00;0.00;0.62;;;;;13.90;1.00;;;;;;2276667;61;1109;-85
2023/03/13 04:19:31;408442.00;1.36;704.32;42431.00;0.14;74.09;;;;;13.80;1.00;;;;;;2276250;61;1997;-87
2023/03/13 04:22:02;129992.00;0.43;225.32;0.00;0.00;0.62;;;;;13.60;1.00;;;;;;2276603;61;1582;-84
2023/03/13 04:24:29;403769.00;1.35;696.28;39011.00;0.13;68.18;;;;;13.60;1.00;;;;;;2428618;39;3764;-89
2023/03/13 04:29:37;572163.00;1.91;986.18;0.00;0.00;0.62;;;;;13.90;1.00;;;;;;2273571;60;1297392;-88
2023/03/13 04:32:04;232756.00;0.78;402.29;0.00;0.00;0.62;;;;;13.90;1.00;;;;;;2287683;60;1004;-89
2023/03/13 04:34:31;136220.00;0.45;236.05;0.00;0.00;0.62;;;;;14.00;1.00;;;;;;2287745;60;1122;-87
2023/03/13 04:36:58;402647.00;1.34;694.36;24617.00;0.08;43.26;;;;;14.10;1.00;;;;;;2287661;60;919;-85
2023/03/13 04:39:25;201474.00;0.67;348.46;0.00;0.00;0.62;;;;;14.10;1.00;;;;;;2287783;60;1354;-87
2023/03/13 04:41:53;620491.00;2.07;1069.61;87854.00;0.29;152.60;;;;;14.10;1.00;;;;;;2287833;60;1043;-87
2023/03/13 04:44:21;212358.00;0.71;367.19;0.00;0.00;0.62;;;;;14.10;1.00;;;;;;2287675;60;1281;-88
2023/03/13 04:46:49;514149.00;1.71;886.19;64915.00;0.22;112.97;;;;;13.90;1.00;;;;;;2294062;55;3819;-87
2023/03/13 04:49:17;215079.00;0.72;371.88;0.00;0.00;0.62;;;;;14.00;1.00;;;;;;2276130;61;2013;-84
2023/03/13 04:54:15;507195.00;1.69;874.21;0.00;0.00;0.62;;;;;14.00;1.00;;;;;;2269524;61;1316;-86
2023/03/13 04:56:42;176611.00;0.59;305.65;0.00;0.00;0.62;;;;;13.90;1.00;;;;;;2268069;61;980;-88
2023/03/13 04:59:09;223661.00;0.75;386.64;0.00;0.00;0.62;;;;;13.80;1.00;;;;;;2267989;61;1551;-87
2023/03/13 05:01:36;358971.00;1.20;619.28;0.00;0.00;0.62;;;;;13.80;1.00;;;;;;2267351;61;1100;-86
2023/03/13 05:06:32;756505.00;2.52;1305.37;0.00;0.00;0.62;;;;;13.80;1.00;;;;;;2265483;61;1331;-88
2023/03/13 05:08:59;118332832.00;394.44;67120248.00;0.00;0.00;0.62;;;;;13.90;1.00;;;;;;2263793;61;1915;-85
2023/03/13 05:11:26;252934.00;0.84;437.00;0.00;0.00;0.62;;;;;14.00;1.00;;;;;;2259344;61;1102;-87
2023/03/13 05:13:53;189421.00;0.63;327.71;0.00;0.00;0.62;;;;;14.20;1.00;;;;;;2259312;61;1134;-88
2023/03/13 05:16:20;151554.00;0.51;262.49;0.00;0.00;0.62;;;;;14.60;1.00;;;;;;2259385;61;1585;-87
2023/03/13 05:18:47;373682.00;1.25;644.57;0.00;0.00;0.62;;;;;14.40;1.00;;;;;;2259354;61;1711;-87
2023/03/13 05:21:15;387078.00;1.29;667.59;32351.00;0.11;56.65;;;;;14.30;1.00;;;;;;2302534;55;3819;-87
2023/03/13 05:26:13;983515.00;3.28;1703.30;0.00;0.00;0.62;;;;;14.40;1.00;;;;;;2268530;61;1333;-85
2023/03/13 05:28:40;175426.00;0.58;303.61;0.00;0.00;0.62;;;;;14.40;1.00;;;;;;2267329;61;2004;-86
2023/03/13 05:33:37;716315.00;2.39;1235.54;0.00;0.00;0.62;;;;;14.40;1.00;;;;;;2264686;61;1409;-87
2023/03/13 05:36:04;149470.00;0.50;258.89;0.00;0.00;0.62;;;;;14.30;1.00;;;;;;2263350;61;924;-87
2023/03/13 05:38:31;120302.00;0.40;208.60;0.00;0.00;0.62;;;;;14.30;1.00;;;;;;2263356;61;1177;-88
2023/03/13 05:40:58;219143.00;0.73;378.87;0.00;0.00;0.62;;;;;14.30;1.00;;;;;;2260679;61;1416;-86
2023/03/13 05:43:26;155621.00;0.52;269.49;0.00;0.00;0.62;;;;;14.30;1.00;;;;;;2260559;61;1109;-86
2023/03/13 05:45:53;108761.00;0.36;188.69;0.00;0.00;0.62;;;;;14.10;1.00;;;;;;2260646;61;1614;-86
2023/03/13 05:48:20;203732.00;0.68;352.35;0.00;0.00;0.62;;;;;14.20;1.00;;;;;;2260589;61;2000;-87
2023/03/13 05:50:47;171787.00;0.57;297.34;0.00;0.00;0.62;;;;;14.30;1.00;;;;;;2260598;61;1368;-85
2023/03/13 05:53:15;265562.00;0.89;458.71;0.00;0.00;0.62;;;;;14.30;1.00;;;;;;2268980;40;3590;-84
2023/03/13 05:55:42;211030.00;0.70;364.91;0.00;0.00;0.62;;;;;14.30;1.00;;;;;;2264392;61;1887;-87
2023/03/13 05:58:09;73287.00;0.24;127.44;0.00;0.00;0.62;;;;;14.20;1.00;;;;;;2264468;61;1102;-87
2023/03/13 06:00:38;409054.00;1.36;705.37;0.00;0.00;0.62;;;;;14.20;1.00;;;;;;2264461;61;1368;-85
2023/03/13 06:03:05;228127.00;0.76;394.33;0.00;0.00;0.62;;;;;14.40;1.00;;;;;;2264532;61;1048;-86
2023/03/13 06:05:32;166948.00;0.56;289.01;0.00;0.00;0.62;;;;;14.20;1.00;;;;;;2264608;61;1275;-86
2023/03/13 06:07:58;214933.00;0.72;371.62;0.00;0.00;0.62;;;;;14.20;1.00;;;;;;2264385;61;1912;-86
2023/03/13 06:10:26;291698.00;0.97;503.65;0.00;0.00;0.62;;;;;14.30;1.00;;;;;;2264487;61;1403;-87
2023/03/13 06:12:55;460781.00;1.54;794.33;0.00;0.00;0.62;;;;;14.20;1.00;;;;;;2271516;56;3703;-84
2023/03/13 06:15:23;98019.00;0.33;170.15;0.00;0.00;0.62;;;;;14.10;1.00;;;;;;2268384;61;1035;-86
2023/03/13 06:17:51;210226.00;0.70;363.52;0.00;0.00;0.62;;;;;14.10;1.00;;;;;;2278661;40;3747;-86
2023/03/13 06:20:18;241645.00;0.81;417.58;0.00;0.00;0.62;;;;;14.00;1.00;;;;;;2264445;61;1542;-86
2023/03/13 06:22:45;282799.00;0.94;488.35;0.00;0.00;0.62;;;;;14.10;1.00;;;;;;2266782;40;3613;-86
2023/03/13 06:25:12;493001.00;1.64;849.77;13005.00;0.04;23.15;;;;;14.40;1.00;;;;;;2264545;61;1062;-85
2023/03/13 06:27:41;269500.00;0.90;465.48;0.00;0.00;0.62;;;;;14.50;1.00;;;;;;2264462;61;1039;-85
2023/03/13 06:30:10;163755.00;0.55;283.51;0.00;0.00;0.62;;;;;14.50;1.00;;;;;;2264426;61;1995;-85
2023/03/13 06:32:37;255449.00;0.85;441.32;0.00;0.00;0.62;;;;;14.50;1.00;;;;;;2264503;61;985;-87
2023/03/13 06:35:07;251703.00;0.84;434.88;0.00;0.00;0.62;;;;;14.40;1.00;;;;;;2264436;61;1248;-88
2023/03/13 06:37:34;248503.00;0.83;429.38;0.00;0.00;0.62;;;;;14.20;1.00;;;;;;2264370;61;1063;-87
2023/03/13 06:40:01;221440.00;0.74;382.82;0.00;0.00;0.62;;;;;14.30;1.00;;;;;;2264337;61;1612;-87
2023/03/13 06:42:28;120935.00;0.40;209.70;0.00;0.00;0.62;;;;;14.30;1.00;;;;;;2264389;61;1663;-87
2023/03/13 06:44:55;166288.00;0.55;287.87;0.00;0.00;0.62;;;;;14.40;1.00;;;;;;2264504;61;1182;-87
2023/03/13 06:47:22;298225.00;0.99;514.87;36181.00;0.12;63.28;;;;;14.50;1.00;;;;;;2264384;61;1109;-87
2023/03/13 06:49:49;92887.00;0.31;161.29;0.00;0.00;0.62;;;;;14.40;1.00;;;;;;2264326;61;1924;-86
2023/03/13 06:52:17;231014.00;0.77;399.29;0.00;0.00;0.62;;;;;14.60;1.00;;;;;;2264077;61;1681;-87
2023/03/13 06:54:44;227687.00;0.76;393.57;0.00;0.00;0.62;;;;;14.30;1.00;;;;;;2264344;61;1520;-88
2023/03/13 06:57:11;135274.00;0.45;234.42;0.00;0.00;0.62;;;;;14.30;1.00;;;;;;2264420;61;1225;-86
2023/03/13 06:59:39;195149.00;0.65;337.57;0.00;0.00;0.62;;;;;14.40;1.00;;;;;;2264386;61;1630;-88
2023/03/13 07:02:06;152118.00;0.51;263.46;0.00;0.00;0.62;;;;;14.60;1.00;;;;;;2264361;61;1075;-88
2023/03/13 07:04:33;111383.00;0.37;193.22;0.00;0.00;0.62;;;;;14.50;1.00;;;;;;2264331;61;1734;-87
2023/03/13 07:07:00;224285.00;0.75;387.72;0.00;0.00;0.62;;;;;14.60;1.00;;;;;;2264353;61;1057;-87
2023/03/13 07:09:28;181083.00;0.60;313.35;0.00;0.00;0.62;;;;;14.60;1.00;;;;;;2264242;61;1928;-86
2023/03/13 07:11:56;74368.00;0.25;129.31;0.00;0.00;0.62;;;;;14.70;1.00;;;;;;2264474;61;898;-87
2023/03/13 07:14:23;118427392.00;394.76;67281424.00;0.00;0.00;0.62;;;;;14.60;1.00;;;;;;2264311;61;1092;-88
2023/03/13 07:16:51;145399.00;0.48;251.88;0.00;0.00;0.62;;;;;14.80;1.00;;;;;;2264224;61;1130;-87
2023/03/13 07:19:17;215448.00;0.72;372.51;0.00;0.00;0.62;;;;;14.70;1.00;;;;;;2264244;61;1400;-87
2023/03/13 07:21:45;69573.00;0.23;121.02;0.00;0.00;0.62;;;;;14.80;1.00;;;;;;2264298;61;1087;-87
2023/03/13 07:24:12;112204.00;0.37;194.63;0.00;0.00;0.62;;;;;14.90;1.00;;;;;;2264260;61;1118;-88
2023/03/13 07:26:41;152255.00;0.51;263.69;0.00;0.00;0.62;;;;;15.10;1.00;;;;;;2264346;61;1017;-88
2023/03/13 07:29:10;146012.00;0.49;252.93;0.00;0.00;0.62;;;;;15.10;1.00;;;;;;2264331;61;2010;-86
2023/03/13 07:31:38;157860.00;0.53;273.35;0.00;0.00;0.62;;;;;15.10;1.00;;;;;;2264115;61;1435;-85
2023/03/13 07:34:05;283708.00;0.95;489.91;35712.00;0.12;62.47;;;;;15.00;1.00;;;;;;2264212;61;1150;-87
2023/03/13 07:36:34;227850.00;0.76;393.85;0.00;0.00;0.62;;;;;15.10;1.00;;;;;;2264163;61;1153;-87
2023/03/13 07:39:01;398086.00;1.33;686.51;0.00;0.00;0.62;;;;;15.10;1.00;;;;;;2274519;56;3783;-86
2023/03/13 07:41:28;220884.00;0.74;381.86;0.00;0.00;0.62;;;;;15.10;1.00;;;;;;2266481;40;3643;-84
2023/03/13 07:43:57;158751.00;0.53;274.89;35064.00;0.12;61.35;;;;;15.10;1.00;;;;;;2264262;61;1249;-86
2023/03/13 07:46:24;119060936.00;396.87;68368000.00;36673.00;0.12;64.13;;;;;15.10;1.00;;;;;;2264135;61;1115;-85
2023/03/13 07:48:51;85159.00;0.28;147.95;0.00;0.00;0.62;;;;;15.30;1.00;;;;;;2264137;61;1998;-86
2023/03/13 07:51:20;206914.00;0.69;357.82;0.00;0.00;0.62;;;;;15.40;1.00;;;;;;2264271;61;1286;-88
2023/03/13 07:53:47;161930.00;0.54;280.36;0.00;0.00;0.62;;;;;15.50;1.00;;;;;;2264221;61;1150;-85
2023/03/13 07:56:16;365329.00;1.22;630.21;21572.00;0.07;37.99;;;;;15.90;1.00;;;;;;2264087;61;1552;-88
2023/03/13 07:58:44;363676.00;1.21;627.37;0.00;0.00;0.62;;;;;16.10;1.00;;;;;;2264200;61;1173;-88
2023/03/13 08:01:16;362336.00;1.21;625.06;0.00;0.00;0.62;;;;;16.10;1.00;;;;;;2288182;41;3846;-85
2023/03/13 08:03:45;150075.00;0.50;259.94;0.00;0.00;0.62;;;;;16.30;1.00;;;;;;2264173;61;1162;-84
2023/03/13 08:06:15;193587.00;0.65;334.88;0.00;0.00;0.62;;;;;16.20;1.00;;;;;;2264249;61;1161;-84
2023/03/13 08:08:42;243672.00;0.81;421.07;6597.00;0.02;12.05;;;;;15.80;1.00;;;;;;2264186;61;1927;-84
2023/03/13 08:11:15;305951.00;1.02;528.15;0.00;0.00;0.62;;;;;15.80;1.00;;;;;;2264292;61;1385;-87
2023/03/13 08:13:45;269378.00;0.90;465.27;0.00;0.00;0.62;;;;;15.80;1.00;;;;;;2264329;61;990;-88
2023/03/13 08:16:18;435825.00;1.45;751.40;5559.00;0.02;10.25;;;;;15.90;1.00;;;;;;2271065;55;3768;-87
2023/03/13 08:18:49;186968.00;0.62;323.49;0.00;0.00;0.62;;;;;16.10;1.00;;;;;;2264170;61;1431;-86
2023/03/13 08:21:21;347165.00;1.16;598.99;18682.00;0.06;32.99;;;;;16.20;1.00;;;;;;2264004;61;1617;-86
2023/03/13 08:23:55;120948.00;0.40;209.72;0.00;0.00;0.62;;;;;16.10;1.00;;;;;;2264101;61;1583;-87
2023/03/13 08:26:27;136203.00;0.45;236.02;0.00;0.00;0.62;;;;;15.70;1.00;;;;;;2264082;61;1483;-87
2023/03/13 08:28:56;142682.00;0.48;247.19;0.00;0.00;0.62;;;;;15.70;1.00;;;;;;2264083;61;2009;-86
2023/03/13 08:31:26;229435.00;0.76;396.58;0.00;0.00;0.62;;;;;15.80;1.00;;;;;;2264110;61;1180;-86
2023/03/13 08:33:54;278562.00;0.93;481.07;0.00;0.00;0.62;;;;;16.00;1.00;;;;;;2264115;61;1412;-86
2023/03/13 08:36:24;163630.00;0.55;283.29;0.00;0.00;0.62;;;;;16.10;1.00;;;;;;2264173;61;1419;-85
2023/03/13 08:38:54;214273.00;0.71;370.49;22758.00;0.08;40.05;;;;;16.10;1.00;;;;;;2264147;61;2257;-85
2023/03/13 08:41:23;342332.00;1.14;590.68;14209.00;0.05;25.24;;;;;16.20;1.00;;;;;;2264083;61;1447;-86
2023/03/13 08:43:52;150689.00;0.50;260.99;0.00;0.00;0.62;;;;;16.20;1.00;;;;;;2264095;61;1657;-84
2023/03/13 08:46:20;361121.00;1.20;622.98;39401.00;0.13;68.85;;;;;16.20;1.00;;;;;;2264039;61;1647;-85
2023/03/13 08:48:51;222171.00;0.74;384.08;0.00;0.00;0.62;;;;;16.30;1.00;;;;;;2263984;61;2005;-85
2023/03/13 08:51:19;140569.00;0.47;243.55;0.00;0.00;0.62;;;;;16.40;1.00;;;;;;2272651;40;3654;-84
2023/03/13 08:53:46;766501.00;2.56;1322.76;19661.00;0.07;34.68;;;;;16.60;1.00;;;;;;2265529;61;1427;-87
2023/03/13 08:56:17;1583446.00;5.28;2801.14;116907.00;0.39;202.75;;;;;16.60;1.00;;;;;;2264065;61;1132;-88
2023/03/13 08:58:50;1548686.00;5.16;2735.07;304978.00;1.02;526.48;;;;;16.60;1.00;;;;;;2264050;61;1452;-86
2023/03/13 09:01:17;1361796.00;4.54;2385.65;110330.00;0.37;191.40;;;;;16.80;1.00;;;;;;2264005;61;1447;-87
2023/03/13 09:03:48;1252909.00;4.18;2186.18;96941.00;0.32;168.29;;;;;17.00;1.00;;;;;;2264112;61;1448;-87
2023/03/13 09:06:19;925270.00;3.08;1600.55;247759.00;0.83;428.10;;;;;17.10;1.00;;;;;;2264077;61;1138;-87
2023/03/13 09:08:47;988111.00;3.29;1711.43;115839.00;0.39;200.90;;;;;16.90;1.00;;;;;;2264018;61;2013;-86
2023/03/13 09:11:16;1352883.00;4.51;2369.22;190397.00;0.63;329.39;;;;;16.90;1.00;;;;;;2264048;61;1340;-87
2023/03/13 09:13:46;1401528.00;4.67;2459.16;161815.00;0.54;280.17;;;;;16.90;1.00;;;;;;2264119;61;1681;-88
2023/03/13 09:16:15;1449551.00;4.83;2548.55;166522.00;0.56;288.28;;;;;17.00;1.00;;;;;;2264680;61;914;-87
2023/03/13 09:18:47;1155332.00;3.85;2009.67;107211.00;0.36;186.02;;;;;17.10;1.00;;;;;;2264732;61;1413;-85
2023/03/13 09:21:18;122720608.00;409.07;74874480.00;115166.00;0.38;199.74;;;;;17.10;1.00;;;;;;2264574;61;1539;-86
2023/03/13 09:23:46;121862744.00;406.21;73313784.00;190511.00;0.64;329.59;;;;;17.30;1.00;;;;;;2264734;61;1653;-86
2023/03/13 09:26:14;744821.00;2.48;1285.05;119823.00;0.40;207.78;;;;;17.30;1.00;;;;;;2264712;61;1339;-87
2023/03/13 09:28:42;404474.00;1.35;697.50;93924.00;0.31;163.08;;;;;17.70;1.00;;;;;;2264364;61;1182;-86
2023/03/13 09:31:11;484183.00;1.61;834.60;113527.00;0.38;196.92;;;;;17.80;1.00;;;;;;2264660;61;1443;-87
2023/03/13 09:33:38;355265.00;1.18;612.91;101728.00;0.34;176.55;;;;;18.20;1.00;;;;;;2264623;61;1810;-89
2023/03/13 09:36:09;407733.00;1.36;703.10;95159.00;0.32;165.22;;;;;18.30;1.00;;;;;;2264578;61;1001;-87
2023/03/13 09:38:38;378705.00;1.26;653.20;101303.00;0.34;175.82;;;;;18.60;1.00;;;;;;2264702;61;1463;-86
2023/03/13 09:41:25;450059.00;1.50;775.88;96528.00;0.32;167.58;;;;;18.50;1.00;;;;;;2264535;61;1299;-88
2023/03/13 09:43:58;1025607.00;3.42;1777.88;78582.00;0.26;136.59;;;;;19.20;1.00;;;;;;2264647;61;1600;-88
2023/03/13 09:46:31;912805.00;3.04;1578.62;124901.00;0.42;216.54;;;;;19.80;1.00;;;;;;2264635;61;1611;-86
2023/03/13 09:49:02;1046765.00;3.49;1815.48;202678.00;0.68;350.53;;;;;19.30;1.00;;;;;;2264515;61;1923;-89
2023/03/13 09:51:37;894305.00;2.98;1546.12;171293.00;0.57;296.49;;;;;19.10;1.00;;;;;;2264413;61;1178;-88
2023/03/13 09:54:14;734211.00;2.45;1266.62;124189.00;0.41;215.31;;;;;19.20;1.00;;;;;;2264594;61;1770;-87
2023/03/13 09:56:45;946903.00;3.16;1638.65;144730.00;0.48;250.72;;;;;19.30;1.00;;;;;;2264512;61;1107;-86
2023/03/13 09:59:19;865377.00;2.88;1495.39;111703.00;0.37;193.77;;;;;19.30;1.00;;;;;;2264645;61;1361;-85
2023/03/13 10:01:50;686417.00;2.29;1183.69;86257.00;0.29;149.84;;;;;19.40;1.00;;;;;;2264610;61;1055;-86
2023/03/13 10:06:50;769667.00;2.57;1328.27;90643.00;0.30;157.42;;;;;19.00;1.00;;;;;;2266172;61;1460;-87
2023/03/13 10:11:57;735870.00;2.45;1269.50;91368.00;0.30;158.67;;;;;19.60;1.00;;;;;;2262339;61;1414;-84
2023/03/13 10:14:31;415116.00;1.38;715.79;98487.00;0.33;170.96;;;;;19.40;1.00;;;;;;2260483;61;1560;-86